Time;durP1;ratioP1;P1;durP2;ratioP2;P2;SDS_P1;SDS_P2;PMS_P1;PMS_P2;Temp;Humidity;BMP_temperature;BMP_pressure;BME280_temperature;BME280_humidity;BME280_pressure;Samples;Min_cycle;Max_cycle;Signal;HPM_P1;HPM_P2
2023/10/04 00:00:20;;;;;;;1.27;1.07;;;18.60;63.00;;;;;;6156744;23;20185;-87
2023/10/04 00:02:52;;;;;;;1.13;1.03;;;18.60;63.00;;;;;;6156230;23;20599;-88
2023/10/04 00:05:23;;;;;;;1.03;0.93;;;18.60;63.20;;;;;;6153618;23;20173;-87
2023/10/04 00:07:55;;;;;;;1.50;1.40;;;18.50;63.60;;;;;;6155422;23;20220;-89
2023/10/04 00:10:24;;;;;;;1.63;1.03;;;18.50;63.60;;;;;;6154900;23;20635;-89
2023/10/04 00:12:54;;;;;;;0.63;0.57;;;18.50;63.50;;;;;;6154298;23;20188;-89
2023/10/04 00:15:25;;;;;;;3.20;1.43;;;18.40;63.80;;;;;;6153110;23;20172;-87
2023/10/04 00:17:55;;;;;;;0.50;0.50;;;18.40;64.00;;;;;;6156066;23;20645;-89
2023/10/04 00:20:31;;;;;;;1.00;0.97;;;18.40;64.00;;;;;;6155979;23;20182;-89
2023/10/04 00:23:04;;;;;;;2.47;1.37;;;18.30;63.80;;;;;;6156157;23;20683;-89
2023/10/04 00:25:34;;;;;;;0.90;0.90;;;18.30;64.10;;;;;;6155158;23;20153;-89
2023/10/04 00:28:04;;;;;;;18.73;1.33;;;18.30;64.30;;;;;;6155593;23;20199;-89
2023/10/04 00:30:33;;;;;;;0.80;0.73;;;18.20;64.60;;;;;;6156142;23;20196;-89
2023/10/04 00:33:05;;;;;;;0.50;0.47;;;18.20;64.40;;;;;;6154713;23;20160;-89
2023/10/04 00:35:37;;;;;;;1.43;0.50;;;18.20;64.40;;;;;;6155433;23;20161;-89
2023/10/04 00:38:09;;;;;;;1.30;0.87;;;18.20;64.30;;;;;;6154365;23;20196;-90
2023/10/04 00:40:38;;;;;;;0.67;0.63;;;18.10;64.20;;;;;;6154432;23;20504;-89
2023/10/04 00:43:08;;;;;;;0.40;0.40;;;18.10;64.10;;;;;;6153988;23;20256;-88
2023/10/04 00:45:38;;;;;;;1.80;1.07;;;18.10;64.30;;;;;;6154724;23;20168;-88
2023/10/04 00:48:11;;;;;;;1.03;0.93;;;18.10;64.30;;;;;;6154159;23;20195;-90
2023/10/04 00:50:41;;;;;;;0.87;0.60;;;18.10;64.40;;;;;;6153511;23;20401;-91
2023/10/04 00:53:15;;;;;;;2.17;0.60;;;18.00;64.40;;;;;;6154536;23;20173;-88
2023/10/04 00:55:45;;;;;;;1.10;1.00;;;18.00;64.40;;;;;;6153275;23;20168;-90
2023/10/04 00:58:17;;;;;;;1.80;1.70;;;18.00;64.40;;;;;;6155667;23;20643;-88
2023/10/04 01:00:46;;;;;;;1.90;1.10;;;18.00;64.40;;;;;;6152777;23;20176;-90
2023/10/04 01:03:20;;;;;;;0.60;0.60;;;17.90;64.40;;;;;;6154403;23;20168;-88
2023/10/04 01:05:51;;;;;;;2.83;0.60;;;17.90;64.40;;;;;;6151829;23;20622;-88
2023/10/04 01:08:23;;;;;;;0.73;0.73;;;17.90;64.50;;;;;;6153552;23;20513;-89
2023/10/04 01:10:54;;;;;;;0.40;0.40;;;17.90;65.10;;;;;;6152959;23;20383;-87
2023/10/04 01:13:26;;;;;;;0.97;0.80;;;17.90;65.50;;;;;;6153797;23;20161;-88
2023/10/04 01:15:57;;;;;;;1.20;1.17;;;17.90;65.40;;;;;;6151855;23;20164;-88
2023/10/04 01:18:28;;;;;;;1.93;1.33;;;17.80;65.50;;;;;;6151064;23;20192;-88
2023/10/04 01:20:57;;;;;;;1.07;0.97;;;17.80;65.70;;;;;;6153914;23;20169;-88
2023/10/04 01:23:28;;;;;;;0.80;0.60;;;17.80;65.80;;;;;;6153118;23;20539;-89
2023/10/04 01:25:57;;;;;;;2.00;1.43;;;17.80;66.00;;;;;;6153994;23;20176;-90
2023/10/04 01:28:28;;;;;;;1.17;1.07;;;17.70;65.90;;;;;;6155670;23;20175;-88
2023/10/04 01:30:58;;;;;;;1.37;1.20;;;17.70;66.00;;;;;;6153528;23;20191;-90
2023/10/04 01:33:28;;;;;;;0.60;0.50;;;17.70;66.00;;;;;;6155030;23;20223;-88
2023/10/04 01:35:58;;;;;;;1.40;0.83;;;17.70;66.00;;;;;;6153335;23;20169;-88
2023/10/04 01:38:28;;;;;;;1.30;0.70;;;17.70;66.00;;;;;;6153175;23;20207;-91
2023/10/04 01:40:58;;;;;;;0.60;0.60;;;17.70;65.80;;;;;;6152822;23;20176;-90
2023/10/04 01:43:27;;;;;;;1.80;1.03;;;17.70;65.70;;;;;;6155926;23;20185;-89
2023/10/04 01:45:58;;;;;;;0.87;0.60;;;17.70;65.70;;;;;;6153516;23;20183;-89
2023/10/04 01:48:30;;;;;;;0.73;0.73;;;17.70;65.80;;;;;;6155987;23;20243;-91
2023/10/04 01:51:02;;;;;;;2.13;1.17;;;17.70;65.80;;;;;;6155006;23;20570;-91
2023/10/04 01:53:36;;;;;;;6.40;1.90;;;17.70;65.90;;;;;;6153224;23;20176;-89
2023/10/04 01:56:06;;;;;;;2.30;0.93;;;17.70;66.10;;;;;;6154998;23;20168;-91
2023/10/04 01:58:37;;;;;;;0.90;0.87;;;17.70;66.10;;;;;;6154767;23;20614;-91
2023/10/04 02:01:08;;;;;;;2.10;0.80;;;17.60;66.30;;;;;;6155150;23;20161;-90
2023/10/04 02:03:38;;;;;;;10.23;0.93;;;17.60;66.20;;;;;;6155694;23;20677;-89
2023/10/04 02:06:08;;;;;;;2.10;0.93;;;17.60;66.40;;;;;;6153871;23;20172;-90
2023/10/04 02:08:39;;;;;;;2.30;1.10;;;17.60;66.40;;;;;;6153693;23;20171;-90
2023/10/04 02:11:08;;;;;;;0.50;0.43;;;17.60;66.30;;;;;;6154797;23;20168;-90
2023/10/04 02:13:40;;;;;;;1.80;1.00;;;17.60;66.50;;;;;;6155614;23;20168;-87
2023/10/04 02:16:18;;;;;;;1.87;1.67;;;17.60;66.60;;;;;;6154304;23;20165;-90
2023/10/04 02:18:47;;;;;;;2.50;0.80;;;17.60;66.60;;;;;;6154638;23;20187;-90
2023/10/04 02:21:17;;;;;;;2.37;2.07;;;17.50;66.60;;;;;;6155119;23;20726;-91
2023/10/04 02:23:49;;;;;;;1.73;1.30;;;17.50;66.70;;;;;;6154623;23;20552;-90
2023/10/04 02:26:17;;;;;;;1.20;0.83;;;17.50;66.60;;;;;;6154433;23;20153;-89
2023/10/04 02:28:46;;;;;;;0.57;0.40;;;17.50;66.40;;;;;;6153825;23;20203;-90
2023/10/04 02:31:16;;;;;;;3.70;0.50;;;17.50;66.30;;;;;;6155183;23;20244;-87
2023/10/04 02:33:44;;;;;;;0.70;0.70;;;17.50;66.10;;;;;;6155201;23;20168;-90
2023/10/04 02:36:15;;;;;;;1.33;1.00;;;17.60;66.40;;;;;;6155174;23;20200;-90
2023/10/04 02:38:44;;;;;;;0.87;0.87;;;17.50;66.30;;;;;;6153808;23;20182;-91
2023/10/04 02:41:15;;;;;;;3.20;1.53;;;17.50;66.20;;;;;;6154199;23;20200;-90
2023/10/04 02:43:44;;;;;;;0.50;0.50;;;17.60;66.20;;;;;;6153459;23;20161;-89
2023/10/04 02:46:13;;;;;;;0.80;0.80;;;17.60;66.10;;;;;;6154258;23;20169;-90
2023/10/04 02:48:41;;;;;;;1.33;1.03;;;17.50;66.00;;;;;;6155240;23;20906;-91
2023/10/04 02:51:10;;;;;;;9.00;0.80;;;17.50;65.90;;;;;;6157414;23;20231;-92
2023/10/04 02:53:41;;;;;;;1.00;0.87;;;17.60;66.20;;;;;;6155774;23;20671;-90
2023/10/04 02:56:10;;;;;;;0.87;0.87;;;17.50;66.30;;;;;;6156794;23;20168;-88
2023/10/04 02:58:41;;;;;;;2.13;1.13;;;17.50;66.40;;;;;;6157006;23;20216;-88
2023/10/04 03:01:12;;;;;;;1.07;0.70;;;17.50;66.40;;;;;;6155061;23;20192;-88
2023/10/04 03:03:42;;;;;;;1.13;0.60;;;17.50;66.60;;;;;;6155824;23;20219;-89
2023/10/04 03:06:11;;;;;;;3.80;1.63;;;17.50;66.20;;;;;;6154965;23;20168;-88
2023/10/04 03:08:40;;;;;;;3.77;1.67;;;17.50;66.20;;;;;;6155164;23;20192;-91
2023/10/04 03:11:12;;;;;;;2.00;0.67;;;17.40;66.10;;;;;;6156187;23;20256;-91
2023/10/04 03:13:47;;;;;;;2.17;1.07;;;17.50;66.20;;;;;;6156404;23;20213;-90
2023/10/04 03:16:15;;;;;;;0.93;0.93;;;17.40;66.10;;;;;;6156151;23;20175;-88
2023/10/04 03:18:48;;;;;;;0.50;0.50;;;17.40;66.10;;;;;;6156717;23;20156;-89
2023/10/04 03:21:20;;;;;;;1.80;1.43;;;17.40;66.00;;;;;;6131102;23;20192;-91
2023/10/04 03:23:49;;;;;;;1.03;0.93;;;17.40;66.10;;;;;;6156157;23;20215;-89
2023/10/04 03:26:19;;;;;;;0.90;0.87;;;17.40;66.00;;;;;;6155308;23;20169;-89
2023/10/04 03:28:51;;;;;;;0.60;0.60;;;17.40;66.00;;;;;;6155510;23;20177;-88
2023/10/04 03:31:20;;;;;;;5.00;0.70;;;17.30;66.00;;;;;;6156151;23;20161;-91
2023/10/04 03:33:51;;;;;;;0.43;0.43;;;17.30;66.00;;;;;;6154028;23;20176;-88
2023/10/04 03:36:19;;;;;;;2.20;1.43;;;17.40;66.10;;;;;;6155338;23;20585;-87
2023/10/04 03:38:49;;;;;;;1.43;1.03;;;17.30;66.00;;;;;;6155428;23;20172;-91
2023/10/04 03:41:19;;;;;;;2.00;0.60;;;17.30;66.10;;;;;;6155972;23;20207;-90
2023/10/04 03:43:50;;;;;;;0.40;0.40;;;17.30;66.00;;;;;;6155961;23;20168;-90
2023/10/04 03:46:19;;;;;;;0.30;0.30;;;17.30;66.30;;;;;;6155471;23;20595;-90
2023/10/04 03:48:49;;;;;;;1.30;1.20;;;17.20;66.30;;;;;;6156780;23;20165;-89
2023/10/04 03:51:20;;;;;;;5.53;1.20;;;17.20;66.30;;;;;;6156956;23;20590;-89
2023/10/04 03:53:53;;;;;;;0.50;0.50;;;17.20;66.30;;;;;;6155474;23;20169;-89
2023/10/04 03:56:25;;;;;;;1.70;0.75;;;17.20;66.30;;;;;;6154863;23;20422;-90
2023/10/04 03:58:57;;;;;;;0.87;0.80;;;17.20;66.90;;;;;;6155427;23;20285;-90
2023/10/04 04:01:26;;;;;;;3.60;0.90;;;17.10;66.90;;;;;;6155948;23;20623;-88
2023/10/04 04:04:02;;;;;;;0.77;0.67;;;17.20;66.80;;;;;;6154754;23;20175;-90
2023/10/04 04:06:31;;;;;;;1.00;0.90;;;17.10;67.30;;;;;;6156478;23;20165;-89
2023/10/04 04:09:04;;;;;;;1.03;0.93;;;17.10;67.30;;;;;;6154671;23;20171;-88
2023/10/04 04:11:38;;;;;;;0.93;0.80;;;17.10;67.20;;;;;;6127447;23;20481;-89
2023/10/04 04:14:18;;;;;;;0.50;0.50;;;17.00;67.10;;;;;;6152742;23;20164;-88
2023/10/04 04:16:47;;;;;;;1.33;0.80;;;17.10;67.10;;;;;;6153895;23;20693;-88
2023/10/04 04:19:16;;;;;;;0.67;0.53;;;17.00;67.10;;;;;;6154044;23;20165;-88
2023/10/04 04:21:49;;;;;;;0.93;0.90;;;17.00;67.30;;;;;;6153856;23;20700;-89
2023/10/04 04:24:18;;;;;;;1.37;1.27;;;17.00;67.20;;;;;;6156246;23;20571;-89
2023/10/04 04:26:47;;;;;;;1.30;0.97;;;17.00;67.40;;;;;;6154896;23;20164;-89
2023/10/04 04:29:17;;;;;;;0.40;0.40;;;17.00;67.70;;;;;;6154158;23;20169;-87
2023/10/04 04:31:47;;;;;;;1.47;1.20;;;16.90;67.50;;;;;;6154827;23;20191;-89
2023/10/04 04:34:16;;;;;;;2.47;1.13;;;17.00;67.50;;;;;;6154481;23;20251;-89
2023/10/04 04:36:46;;;;;;;1.40;1.27;;;17.00;67.50;;;;;;6154714;23;20243;-90
2023/10/04 04:39:18;;;;;;;1.43;0.93;;;16.90;67.40;;;;;;6156081;23;20223;-89
2023/10/04 04:41:51;;;;;;;0.73;0.60;;;16.90;67.30;;;;;;6153749;23;20212;-88
2023/10/04 04:44:30;;;;;;;0.40;0.40;;;17.00;67.40;;;;;;6155477;23;20165;-90
2023/10/04 04:46:59;;;;;;;2.00;1.10;;;17.00;67.30;;;;;;6154718;23;20252;-88
2023/10/04 04:49:29;;;;;;;1.43;1.03;;;17.00;67.20;;;;;;6157259;23;20169;-89
2023/10/04 04:52:01;;;;;;;1.17;1.07;;;17.00;67.30;;;;;;6154230;23;20181;-86
2023/10/04 04:54:30;;;;;;;0.40;0.40;;;17.00;67.30;;;;;;6152692;23;20502;-90
2023/10/04 04:56:59;;;;;;;0.60;0.60;;;17.00;67.40;;;;;;6154114;23;20169;-88
2023/10/04 04:59:29;;;;;;;2.30;1.07;;;17.10;67.80;;;;;;6156098;23;20187;-89
2023/10/04 05:01:58;;;;;;;2.43;1.40;;;17.00;67.80;;;;;;6151602;23;20204;-89
2023/10/04 05:04:27;;;;;;;1.33;0.90;;;17.00;67.70;;;;;;6153899;23;20165;-88
2023/10/04 05:06:56;;;;;;;14.73;2.63;;;17.10;67.90;;;;;;6152341;23;20228;-88
2023/10/04 05:09:24;;;;;;;1.30;1.20;;;17.10;68.10;;;;;;6155148;23;20391;-88
2023/10/04 05:11:53;;;;;;;2.90;1.10;;;17.10;68.60;;;;;;6155772;23;20486;-89
2023/10/04 05:14:22;;;;;;;1.23;0.80;;;17.10;68.80;;;;;;6155375;23;20215;-88
2023/10/04 05:16:52;;;;;;;3.43;1.57;;;17.10;68.80;;;;;;6155070;23;20169;-89
2023/10/04 05:19:20;;;;;;;3.40;2.20;;;17.10;68.80;;;;;;6155634;23;20175;-88
2023/10/04 05:21:49;;;;;;;4.80;2.23;;;17.20;69.00;;;;;;6155832;23;20254;-90
2023/10/04 05:24:18;;;;;;;1.53;1.13;;;17.20;69.30;;;;;;6154526;23;20165;-88
2023/10/04 05:26:47;;;;;;;0.73;0.73;;;17.20;69.20;;;;;;6156255;23;20610;-87
2023/10/04 05:29:16;;;;;;;5.20;2.20;;;17.20;68.90;;;;;;6155144;23;20165;-89
2023/10/04 05:31:46;;;;;;;3.07;2.23;;;17.30;69.30;;;;;;6155268;23;20243;-88
2023/10/04 05:34:16;;;;;;;1.30;1.00;;;17.30;69.30;;;;;;6154235;23;20175;-87
2023/10/04 05:36:46;;;;;;;1.30;1.20;;;17.40;69.20;;;;;;6153631;23;20168;-87
2023/10/04 05:39:15;;;;;;;2.87;1.80;;;17.40;69.40;;;;;;6153460;23;20247;-88
2023/10/04 05:41:45;;;;;;;2.50;1.87;;;17.40;69.30;;;;;;6153740;23;20206;-87
2023/10/04 05:44:13;;;;;;;1.87;1.33;;;17.50;69.40;;;;;;6155158;23;20168;-87
2023/10/04 05:46:44;;;;;;;0.53;0.53;;;17.60;69.50;;;;;;6154093;23;20168;-87
2023/10/04 05:49:13;;;;;;;3.03;2.40;;;17.60;69.50;;;;;;6155429;23;20204;-84
2023/10/04 05:51:46;;;;;;;4.73;1.87;;;17.60;69.80;;;;;;6158014;23;20164;-88
2023/10/04 05:54:20;;;;;;;1.17;1.07;;;17.70;70.00;;;;;;6161175;23;20180;-92
2023/10/04 05:56:51;;;;;;;1.77;1.27;;;17.70;70.20;;;;;;6159378;23;20677;-88
2023/10/04 05:59:23;;;;;;;2.03;1.87;;;17.70;70.40;;;;;;6156162;23;20172;-89
2023/10/04 06:01:51;;;;;;;5.47;1.87;;;17.70;70.50;;;;;;6154153;23;20199;-88
2023/10/04 06:04:20;;;;;;;2.30;1.63;;;17.80;70.50;;;;;;6154839;23;20192;-89
2023/10/04 06:06:50;;;;;;;1.57;1.33;;;17.90;70.50;;;;;;6160311;23;20175;-89
2023/10/04 06:09:28;;;;;;;7.47;2.43;;;17.90;71.00;;;;;;6174691;23;20165;-90
2023/10/04 06:11:57;;;;;;;1.90;1.80;;;17.90;71.00;;;;;;6175755;23;20172;-91
2023/10/04 06:14:28;;;;;;;2.10;1.30;;;18.00;70.90;;;;;;6175648;23;20168;-92
2023/10/04 06:16:57;;;;;;;1.33;1.20;;;18.00;70.90;;;;;;6176036;23;20184;-92
2023/10/04 06:19:28;;;;;;;5.20;2.10;;;18.10;70.80;;;;;;6176970;23;20176;-90
2023/10/04 06:22:00;;;;;;;2.33;1.50;;;18.10;70.60;;;;;;6174572;23;20189;-94
2023/10/04 06:24:29;;;;;;;2.00;1.17;;;18.20;70.50;;;;;;6175775;23;20161;-90
2023/10/04 06:26:58;;;;;;;4.47;1.60;;;18.30;70.30;;;;;;6174684;23;20177;-90
2023/10/04 06:29:27;;;;;;;2.17;1.97;;;18.30;70.00;;;;;;6168653;23;20498;-92
2023/10/04 06:31:56;;;;;;;7.47;2.13;;;18.40;69.80;;;;;;6156616;23;20184;-94
2023/10/04 06:34:25;;;;;;;10.47;1.30;;;18.40;69.60;;;;;;6158950;23;20419;-92
2023/10/04 06:36:54;;;;;;;1.70;1.60;;;18.40;69.30;;;;;;6155957;23;20252;-96
2023/10/04 06:39:24;;;;;;;0.80;0.80;;;18.60;69.30;;;;;;6131988;23;20183;-93
2023/10/04 06:41:54;;;;;;;1.43;1.33;;;18.60;69.10;;;;;;6156378;23;20196;-92
2023/10/04 06:44:22;;;;;;;3.07;1.47;;;18.70;69.00;;;;;;6157829;23;20169;-92
2023/10/04 06:46:52;;;;;;;3.27;1.87;;;18.80;68.90;;;;;;6155250;23;20541;-94
2023/10/04 06:49:21;;;;;;;6.80;1.73;;;18.80;68.50;;;;;;6157533;23;20172;-94
2023/10/04 06:51:49;;;;;;;1.02;1.02;;;18.90;68.30;;;;;;6156992;23;20235;-91
2023/10/04 06:54:18;;;;;;;5.17;1.93;;;19.00;68.20;;;;;;6156952;23;20172;-91
2023/10/04 06:56:51;;;;;;;3.63;1.70;;;19.10;68.20;;;;;;6154490;23;20179;-93
2023/10/04 06:59:22;;;;;;;1.43;1.33;;;19.20;68.10;;;;;;6156535;23;20401;-90
2023/10/04 07:01:51;;;;;;;0.60;0.60;;;19.30;67.90;;;;;;6156804;23;20267;-90
2023/10/04 07:04:20;;;;;;;0.87;0.87;;;19.40;67.70;;;;;;6156562;23;20169;-91
2023/10/04 07:06:49;;;;;;;1.07;0.60;;;19.50;67.50;;;;;;6155361;23;20164;-93
2023/10/04 07:09:18;;;;;;;1.90;0.60;;;19.60;67.50;;;;;;6156316;23;20173;-91
2023/10/04 07:11:50;;;;;;;0.77;0.77;;;19.70;67.40;;;;;;6156092;23;20173;-92
2023/10/04 07:14:18;;;;;;;0.63;0.60;;;19.80;67.20;;;;;;6155730;23;20169;-92
2023/10/04 07:16:49;;;;;;;1.10;0.95;;;19.80;66.80;;;;;;6157272;23;20183;-93
2023/10/04 07:19:18;;;;;;;2.58;1.77;;;19.90;66.50;;;;;;6155468;23;20165;-89
2023/10/04 07:21:47;;;;;;;1.23;1.02;;;20.00;66.30;;;;;;6155192;23;20200;-92
2023/10/04 07:24:15;;;;;;;0.77;0.77;;;20.10;66.20;;;;;;6155379;23;20164;-92
2023/10/04 07:26:45;;;;;;;8.63;0.77;;;20.20;66.20;;;;;;6155770;23;20172;-91
2023/10/04 07:29:17;;;;;;;6.82;1.35;;;20.20;65.50;;;;;;6153998;23;20161;-90
2023/10/04 07:31:48;;;;;;;1.25;1.02;;;20.30;65.50;;;;;;6154716;23;20215;-90
2023/10/04 07:34:17;;;;;;;0.88;0.80;;;20.50;65.50;;;;;;6155136;23;20161;-91
2023/10/04 07:36:46;;;;;;;3.90;1.30;;;20.50;65.20;;;;;;6157943;23;20174;-91
2023/10/04 07:39:21;;;;;;;3.00;1.67;;;20.60;65.00;;;;;;6158107;23;20165;-93
2023/10/04 07:41:50;;;;;;;5.78;1.25;;;20.70;64.50;;;;;;6156715;23;20254;-92
2023/10/04 07:44:20;;;;;;;0.65;0.57;;;20.80;64.40;;;;;;6157479;23;20176;-90
2023/10/04 07:46:49;;;;;;;2.38;1.20;;;20.90;64.10;;;;;;6157823;23;20175;-92
2023/10/04 07:49:19;;;;;;;1.20;1.10;;;21.00;63.80;;;;;;6157686;23;20179;-91
2023/10/04 07:51:48;;;;;;;0.65;0.65;;;21.00;63.60;;;;;;6156511;23;20176;-90
2023/10/04 07:54:18;;;;;;;1.30;1.02;;;21.10;63.50;;;;;;6156843;23;20173;-89
2023/10/04 07:56:48;;;;;;;0.40;0.40;;;21.20;63.40;;;;;;6156473;23;20546;-89
2023/10/04 07:59:18;;;;;;;0.60;0.60;;;21.30;63.50;;;;;;6156432;23;20203;-93
2023/10/04 08:01:48;;;;;;;2.97;1.55;;;21.40;63.20;;;;;;6154944;23;20175;-91
2023/10/04 08:04:17;;;;;;;1.05;0.95;;;21.50;63.10;;;;;;6157438;23;20236;-91
2023/10/04 08:06:52;;;;;;;1.42;1.17;;;21.60;62.80;;;;;;6156957;23;20164;-90
2023/10/04 08:09:22;;;;;;;0.50;0.50;;;21.70;62.50;;;;;;6155974;23;20156;-90
2023/10/04 08:11:54;;;;;;;1.63;1.00;;;21.80;62.20;;;;;;6155971;23;20157;-91
2023/10/04 08:14:23;;;;;;;0.65;0.55;;;21.90;61.50;;;;;;6157698;23;20236;-92
2023/10/04 08:16:53;;;;;;;3.97;1.60;;;21.90;60.80;;;;;;6156762;23;20168;-91
2023/10/04 08:19:22;;;;;;;0.60;0.60;;;22.10;60.60;;;;;;6155704;23;20164;-90
2023/10/04 08:21:51;;;;;;;3.97;1.95;;;22.10;59.90;;;;;;6155430;23;20172;-92
2023/10/04 08:24:20;;;;;;;3.13;0.73;;;22.30;59.70;;;;;;6156387;23;20236;-89
2023/10/04 08:26:50;;;;;;;1.95;0.98;;;22.30;59.10;;;;;;6156345;23;20175;-89
2023/10/04 08:29:19;;;;;;;1.05;0.60;;;22.40;58.50;;;;;;6157043;23;20173;-90
2023/10/04 08:31:48;;;;;;;1.20;0.70;;;22.50;58.60;;;;;;6155544;23;20260;-90
2023/10/04 08:34:18;;;;;;;2.22;1.33;;;22.60;58.30;;;;;;6156312;23;20176;-91
2023/10/04 08:36:47;;;;;;;1.25;1.05;;;22.70;58.00;;;;;;6154715;23;20172;-91
2023/10/04 08:39:16;;;;;;;0.47;0.47;;;22.80;57.60;;;;;;6155977;23;20200;-94
2023/10/04 08:42:01;;;;;;;2.50;0.90;;;22.80;56.00;;;;;;6155498;23;20200;-90
2023/10/04 08:44:31;;;;;;;5.45;1.65;;;22.90;55.60;;;;;;6154803;23;20166;-89
2023/10/04 08:47:06;;;;;;;1.05;0.52;;;23.00;56.20;;;;;;6154421;23;20161;-90
2023/10/04 08:49:50;;;;;;;1.40;0.75;;;23.10;55.80;;;;;;6156798;23;20223;-91
2023/10/04 08:52:22;;;;;;;2.70;0.68;;;23.20;55.60;;;;;;6157170;23;20555;-91
2023/10/04 09:12:06;;;;;;;0.50;0.50;;;23.80;54.20;;;;;;6152079;23;20202;-84
2023/10/04 09:14:37;;;;;;;0.38;0.38;;;23.80;53.70;;;;;;6213194;23;20175;-84
2023/10/04 09:20:19;;;;;;;5.28;1.10;;;24.00;53.10;;;;;;6211140;23;20181;-89
2023/10/04 09:22:59;;;;;;;1.17;0.75;;;24.10;53.10;;;;;;6155317;23;20269;-87
2023/10/04 09:26:03;;;;;;;0.30;0.30;;;24.10;52.70;;;;;;6214472;23;20190;-89
2023/10/04 09:50:45;;;;;;;0.85;0.77;;;24.70;51.10;;;;;;5975897;24;20523;-86
2023/10/04 09:53:14;;;;;;;3.03;2.05;;;24.80;50.80;;;;;;5976858;23;20176;-87
2023/10/04 09:55:43;;;;;;;0.93;0.60;;;24.80;50.80;;;;;;6129881;23;20696;-88
2023/10/04 09:58:15;;;;;;;0.40;0.30;;;25.00;51.20;;;;;;6154296;23;20178;-88
2023/10/04 10:00:45;;;;;;;2.28;1.55;;;25.00;50.50;;;;;;6153812;23;20196;-85
2023/10/04 10:03:19;;;;;;;1.75;1.52;;;25.10;50.30;;;;;;6152551;23;20516;-84
2023/10/04 10:05:50;;;;;;;1.17;0.90;;;25.20;50.80;;;;;;6148731;23;20172;-85
2023/10/04 10:08:25;;;;;;;2.38;1.35;;;25.20;51.20;;;;;;6148162;23;20172;-83
2023/10/04 10:10:55;;;;;;;1.05;0.57;;;25.30;51.30;;;;;;6148417;23;20247;-88
2023/10/04 10:13:26;;;;;;;0.70;0.70;;;25.30;50.80;;;;;;6150397;23;20172;-86
2023/10/04 10:15:55;;;;;;;1.70;1.00;;;25.40;50.90;;;;;;6147588;23;20180;-86
2023/10/04 10:18:26;;;;;;;1.65;1.10;;;25.40;50.30;;;;;;6152073;23;20234;-84
2023/10/04 10:20:57;;;;;;;0.95;0.52;;;25.50;50.20;;;;;;6148161;23;20175;-87
2023/10/04 10:23:26;;;;;;;0.68;0.50;;;25.50;50.50;;;;;;6150106;23;20216;-87
2023/10/04 10:26:18;;;;;;;4.10;0.85;;;25.60;50.70;;;;;;6151290;23;20173;-89
2023/10/04 10:28:49;;;;;;;0.30;0.30;;;25.70;49.50;;;;;;6151022;23;20176;-88
2023/10/04 10:31:21;;;;;;;0.25;0.25;;;25.70;49.50;;;;;;6151299;23;20243;-87
2023/10/04 10:33:51;;;;;;;0.80;0.70;;;25.80;49.60;;;;;;6150290;23;20401;-87
2023/10/04 10:36:23;;;;;;;0.75;0.75;;;25.80;49.70;;;;;;6151819;23;20168;-88
2023/10/04 10:38:55;;;;;;;0.73;0.55;;;25.90;49.20;;;;;;6151740;23;20227;-87
2023/10/04 10:42:04;;;;;;;11.60;3.92;;;25.90;49.20;;;;;;6149850;23;20223;-86
2023/10/04 10:44:37;;;;;;;1.55;0.88;;;25.90;49.30;;;;;;6149375;23;20203;-91
2023/10/04 10:47:25;;;;;;;0.30;0.30;;;26.00;49.70;;;;;;6150420;23;20684;-84
2023/10/04 10:50:01;;;;;;;2.05;1.08;;;26.00;49.00;;;;;;6152636;23;20433;-84
2023/10/04 10:52:41;;;;;;;0.50;0.50;;;26.10;49.20;;;;;;6150571;23;20164;-86
2023/10/04 10:55:16;;;;;;;0.30;0.30;;;26.20;49.30;;;;;;6149915;23;20153;-84
2023/10/04 10:57:48;;;;;;;0.45;0.32;;;26.20;48.50;;;;;;6151719;23;20156;-86
2023/10/04 11:00:22;;;;;;;0.32;0.32;;;26.30;48.80;;;;;;6152441;23;20173;-83
2023/10/04 11:02:53;;;;;;;0.60;0.40;;;26.30;48.90;;;;;;6152066;23;20160;-84
2023/10/04 11:05:25;;;;;;;1.42;0.95;;;26.40;48.40;;;;;;6152963;23;20212;-85
2023/10/04 11:07:55;;;;;;;0.98;0.57;;;26.50;48.80;;;;;;6152135;23;20164;-86
2023/10/04 11:10:32;;;;;;;1.55;0.85;;;26.50;49.10;;;;;;6154007;23;20247;-86
2023/10/04 11:13:03;;;;;;;8.40;1.27;;;26.50;48.10;;;;;;6152889;23;20602;-86
2023/10/04 11:15:32;;;;;;;0.30;0.30;;;26.50;47.60;;;;;;6154246;23;20175;-85
2023/10/04 11:18:01;;;;;;;0.88;0.73;;;26.50;47.40;;;;;;6154720;23;20179;-86
2023/10/04 11:20:32;;;;;;;0.57;0.50;;;26.50;47.10;;;;;;6154992;23;20700;-87
2023/10/04 11:23:01;;;;;;;0.85;0.65;;;26.60;47.60;;;;;;6153551;23;20189;-87
2023/10/04 11:25:31;;;;;;;0.20;0.20;;;26.70;48.00;;;;;;6151080;23;20168;-85
2023/10/04 11:28:00;;;;;;;1.55;1.45;;;26.70;48.00;;;;;;6153979;23;20537;-88
2023/10/04 11:30:33;;;;;;;3.55;1.00;;;26.80;48.20;;;;;;6152930;23;20173;-84
2023/10/04 11:33:02;;;;;;;2.17;0.73;;;26.80;48.00;;;;;;6155300;23;20167;-85
2023/10/04 11:35:37;;;;;;;0.30;0.30;;;26.90;47.30;;;;;;6153440;23;20169;-87
2023/10/04 11:38:15;;;;;;;1.30;1.02;;;26.90;46.90;;;;;;6155443;23;20160;-86
2023/10/04 11:40:47;;;;;;;2.17;0.95;;;27.00;46.70;;;;;;6153800;23;20188;-84
2023/10/04 11:43:17;;;;;;;6.43;0.98;;;27.00;46.80;;;;;;6153338;23;20694;-87
2023/10/04 11:45:46;;;;;;;1.00;0.73;;;27.00;46.90;;;;;;6153928;23;20192;-84
2023/10/04 11:48:15;;;;;;;1.48;1.20;;;27.10;47.10;;;;;;6154223;23;20169;-85
2023/10/04 11:50:50;;;;;;;2.17;1.27;;;27.20;46.90;;;;;;6155020;23;20670;-83
2023/10/04 11:53:31;;;;;;;1.48;0.63;;;27.20;47.00;;;;;;6154138;23;20546;-85
2023/10/04 11:56:00;;;;;;;0.43;0.43;;;27.30;47.10;;;;;;6154684;23;20188;-85
2023/10/04 11:58:30;;;;;;;0.70;0.70;;;27.30;47.30;;;;;;6154046;23;20180;-86
2023/10/04 12:01:06;;;;;;;0.40;0.40;;;27.30;47.40;;;;;;6154827;23;20183;-87
2023/10/04 12:03:37;;;;;;;0.73;0.73;;;27.30;47.20;;;;;;6154220;23;20641;-85
2023/10/04 12:06:08;;;;;;;2.10;0.85;;;27.40;46.10;;;;;;6153926;23;20589;-85
2023/10/04 12:08:39;;;;;;;0.30;0.30;;;27.40;46.60;;;;;;6155372;23;20207;-85
2023/10/04 12:11:13;;;;;;;0.93;0.77;;;27.50;46.30;;;;;;6153575;23;20184;-85
2023/10/04 12:13:43;;;;;;;0.52;0.38;;;27.50;46.70;;;;;;6152452;23;20169;-85
2023/10/04 12:16:13;;;;;;;0.85;0.70;;;27.60;46.20;;;;;;6154685;23;20168;-87
2023/10/04 12:18:43;;;;;;;0.63;0.55;;;27.60;46.70;;;;;;6153876;23;20171;-86
2023/10/04 12:21:14;;;;;;;0.57;0.57;;;27.70;46.70;;;;;;6153558;23;20176;-87
2023/10/04 12:23:43;;;;;;;3.03;0.57;;;27.70;46.60;;;;;;6154729;23;20157;-85
2023/10/04 12:26:15;;;;;;;0.38;0.38;;;27.80;46.80;;;;;;6153097;23;20169;-85
2023/10/04 12:28:44;;;;;;;1.00;0.50;;;27.80;46.50;;;;;;6154124;23;20161;-84
2023/10/04 12:31:13;;;;;;;0.60;0.60;;;27.90;46.60;;;;;;6153576;23;20223;-85
2023/10/04 12:33:42;;;;;;;0.68;0.68;;;27.90;46.10;;;;;;6153033;23;20172;-84
2023/10/04 12:36:11;;;;;;;1.13;1.02;;;27.90;46.50;;;;;;6154195;23;20587;-84
2023/10/04 12:38:41;;;;;;;0.30;0.30;;;27.90;46.60;;;;;;6152909;23;20260;-84
2023/10/04 12:41:10;;;;;;;0.75;0.75;;;28.00;46.00;;;;;;6153797;23;20168;-84
2023/10/04 12:43:38;;;;;;;0.80;0.80;;;28.00;46.00;;;;;;6153234;23;20223;-84
2023/10/04 12:46:07;;;;;;;0.98;0.95;;;28.00;46.30;;;;;;6151066;23;20200;-87
2023/10/04 12:48:36;;;;;;;1.63;1.05;;;28.10;46.70;;;;;;6151352;23;20172;-84
2023/10/04 12:51:05;;;;;;;0.40;0.40;;;28.10;46.70;;;;;;6152525;23;20179;-84
2023/10/04 12:53:34;;;;;;;0.45;0.45;;;28.10;46.30;;;;;;6154052;23;20168;-85
2023/10/04 12:56:06;;;;;;;1.48;0.60;;;28.20;46.30;;;;;;6151433;23;20200;-84
2023/10/04 12:58:34;;;;;;;2.65;1.23;;;28.20;46.20;;;;;;6152857;23;20157;-88
2023/10/04 13:01:05;;;;;;;2.58;0.93;;;28.20;46.30;;;;;;6152943;23;20393;-88
2023/10/04 13:03:34;;;;;;;1.02;0.50;;;28.30;46.40;;;;;;6154943;23;20235;-87
2023/10/04 13:06:11;;;;;;;0.50;0.50;;;28.20;46.40;;;;;;6153814;23;20255;-90
2023/10/04 13:08:39;;;;;;;0.63;0.50;;;28.30;46.50;;;;;;6154586;23;20169;-88
2023/10/04 13:11:11;;;;;;;8.50;0.75;;;28.30;46.40;;;;;;6153425;23;20175;-89
2023/10/04 13:13:40;;;;;;;0.32;0.32;;;28.30;46.60;;;;;;6152935;23;20220;-88
2023/10/04 13:16:09;;;;;;;2.22;1.08;;;28.40;46.80;;;;;;6151833;23;20177;-88
2023/10/04 13:18:38;;;;;;;0.50;0.50;;;28.40;46.50;;;;;;6154597;23;20171;-88
2023/10/04 13:21:10;;;;;;;0.43;0.43;;;28.60;45.80;;;;;;6153540;23;20175;-90
2023/10/04 13:23:39;;;;;;;0.65;0.50;;;29.00;46.00;;;;;;6150787;23;20171;-84
2023/10/04 13:26:10;;;;;;;1.45;0.52;;;29.30;45.40;;;;;;6154087;23;20235;-89
2023/10/04 13:28:39;;;;;;;0.98;0.50;;;29.30;45.20;;;;;;6153242;23;20191;-89
2023/10/04 13:31:07;;;;;;;2.15;0.75;;;29.30;44.90;;;;;;6151305;23;20547;-85
2023/10/04 13:51:36;;;;;;;1.02;0.80;;;29.00;45.00;;;;;;6165877;22;20207;-84
2023/10/04 13:54:06;;;;;;;2.20;1.40;;;28.90;44.70;;;;;;6210953;23;20167;-84
2023/10/04 13:56:35;;;;;;;1.63;1.52;;;28.80;44.40;;;;;;6211000;23;20172;-83
2023/10/04 13:59:05;;;;;;;0.73;0.60;;;28.80;44.40;;;;;;6213132;23;20171;-83
2023/10/04 14:01:35;;;;;;;0.60;0.60;;;28.70;44.80;;;;;;6213067;23;20492;-84
2023/10/04 14:04:04;;;;;;;1.23;1.13;;;28.70;44.70;;;;;;6210988;23;20624;-84